EJU98ZU LEPA-EGAA
Flight info
| Callsign | EJU98ZU |
|---|---|
| Flight time | 2h 34m |
| Altitude | 36000 |
| Route | DRAGO DCT PAPOS DCT UMURE N863 GIROM DCT AGN DCT SECHE DCT UVELI DCT CNA DCT MANAK UY110 TIRAV UT183 BAGAD DCT DOLUR DCT UPCAB DCT IJALA DCT EVRIN DCT BUNED DCT DIRUM/N0435F370 DCT BAL DCT DUB N34 BELZU |
| Aircraft | A320/M-SDE2E3FGHIJ1RWXYZ/LB1 |
Departure
| Time | 2026-05-05 17:39 |
|---|---|
| Airport | Palma de Mallorca Airport (LEPA) |
Arrival
| Time | 2026-05-05 20:14 |
|---|---|
| Airport | Belfast International Airport (EGAA) |
| Time | Latitude | Longitude | Altitude | Speed | Heading |
|---|---|---|---|---|---|
| 2026-05-05 17:07 | 39.55051 | 2.72801 | 38 ft | 0 kts | 145° |
| 2026-05-05 17:28 | 39.55052 | 2.72800 | 38 ft | 2 kts | 144° |
| 2026-05-05 17:28 | 39.55072 | 2.72778 | 34 ft | 4 kts | 131° |
| 2026-05-05 17:29 | 39.55088 | 2.72750 | 37 ft | 4 kts | 112° |
| 2026-05-05 17:29 | 39.55093 | 2.72717 | 38 ft | 4 kts | 82° |
| 2026-05-05 17:29 | 39.55090 | 2.72698 | 37 ft | 0 kts | 59° |
| 2026-05-05 17:32 | 39.55094 | 2.72707 | 38 ft | 3 kts | 59° |
| 2026-05-05 17:32 | 39.55110 | 2.72743 | 37 ft | 5 kts | 59° |
| 2026-05-05 17:33 | 39.55139 | 2.72805 | 38 ft | 9 kts | 59° |
| 2026-05-05 17:33 | 39.55170 | 2.72872 | 38 ft | 8 kts | 59° |
| 2026-05-05 17:33 | 39.55196 | 2.72927 | 38 ft | 6 kts | 58° |
| 2026-05-05 17:33 | 39.55225 | 2.72987 | 38 ft | 10 kts | 58° |
| 2026-05-05 17:34 | 39.55267 | 2.73073 | 37 ft | 14 kts | 58° |
| 2026-05-05 17:34 | 39.55323 | 2.73191 | 37 ft | 16 kts | 59° |
| 2026-05-05 17:34 | 39.55377 | 2.73306 | 38 ft | 14 kts | 58° |
| 2026-05-05 17:34 | 39.55425 | 2.73407 | 38 ft | 12 kts | 58° |
| 2026-05-05 17:35 | 39.55468 | 2.73497 | 37 ft | 11 kts | 58° |
| 2026-05-05 17:35 | 39.55507 | 2.73573 | 38 ft | 9 kts | 41° |
| 2026-05-05 17:35 | 39.55561 | 2.73547 | 37 ft | 11 kts | 328° |
| 2026-05-05 17:35 | 39.55621 | 2.73504 | 38 ft | 9 kts | 342° |
| 2026-05-05 17:36 | 39.55681 | 2.73557 | 38 ft | 14 kts | 58° |
| 2026-05-05 17:36 | 39.55737 | 2.73676 | 38 ft | 15 kts | 58° |
| 2026-05-05 17:36 | 39.55789 | 2.73786 | 38 ft | 13 kts | 58° |
| 2026-05-05 17:36 | 39.55835 | 2.73883 | 38 ft | 12 kts | 58° |
| 2026-05-05 17:37 | 39.55877 | 2.73971 | 38 ft | 12 kts | 59° |
| 2026-05-05 17:37 | 39.55906 | 2.74033 | 38 ft | 13 kts | 58° |
| 2026-05-05 17:37 | 39.55983 | 2.74197 | 37 ft | 18 kts | 59° |
| 2026-05-05 17:37 | 39.56072 | 2.74290 | 38 ft | 16 kts | 27° |
| 2026-05-05 17:38 | 39.56164 | 2.74350 | 38 ft | 14 kts | 17° |
| 2026-05-05 17:38 | 39.56237 | 2.74307 | 38 ft | 9 kts | 304° |
| 2026-05-05 17:38 | 39.56226 | 2.74261 | 38 ft | 9 kts | 237° |
| 2026-05-05 17:38 | 39.56133 | 2.74067 | 38 ft | 56 kts | 238° |
| 2026-05-05 17:39 | 39.55814 | 2.73394 | 38 ft | 116 kts | 238° |
| 2026-05-05 17:39 | 39.55308 | 2.72321 | 63 ft | 159 kts | 238° |
| 2026-05-05 17:39 | 39.54731 | 2.71055 | 581 ft | 167 kts | 239° |
| 2026-05-05 17:39 | 39.54111 | 2.69774 | 1272 ft | 167 kts | 238° |
| 2026-05-05 17:40 | 39.53458 | 2.68468 | 1685 ft | 182 kts | 238° |
| 2026-05-05 17:40 | 39.52718 | 2.67014 | 2000 ft | 202 kts | 237° |
| 2026-05-05 17:40 | 39.51916 | 2.65454 | 2535 ft | 212 kts | 238° |
| 2026-05-05 17:40 | 39.51099 | 2.63864 | 3341 ft | 212 kts | 238° |
| 2026-05-05 17:41 | 39.50286 | 2.62276 | 4161 ft | 212 kts | 239° |
| 2026-05-05 17:41 | 39.49472 | 2.60689 | 4949 ft | 212 kts | 239° |
| 2026-05-05 17:41 | 39.48651 | 2.59085 | 5686 ft | 215 kts | 239° |
| 2026-05-05 17:41 | 39.47823 | 2.57467 | 6446 ft | 216 kts | 239° |
| 2026-05-05 17:42 | 39.46990 | 2.55838 | 7176 ft | 217 kts | 238° |
| 2026-05-05 17:42 | 39.46153 | 2.54204 | 7911 ft | 219 kts | 238° |
| 2026-05-05 17:42 | 39.45319 | 2.52550 | 8634 ft | 222 kts | 242° |
| 2026-05-05 17:42 | 39.44912 | 2.50552 | 8932 ft | 245 kts | 271° |
| 2026-05-05 17:43 | 39.45438 | 2.48359 | 9305 ft | 270 kts | 301° |
| 2026-05-05 17:43 | 39.46851 | 2.46670 | 9940 ft | 285 kts | 321° |
| 2026-05-05 17:43 | 39.48534 | 2.45186 | 10332 ft | 303 kts | 321° |
| 2026-05-05 17:43 | 39.50347 | 2.43595 | 10578 ft | 325 kts | 321° |
| 2026-05-05 17:44 | 39.52219 | 2.41959 | 11130 ft | 333 kts | 321° |
| 2026-05-05 17:44 | 39.54154 | 2.40270 | 11794 ft | 337 kts | 320° |
| 2026-05-05 17:44 | 39.55909 | 2.38285 | 12469 ft | 335 kts | 308° |
| 2026-05-05 17:44 | 39.57523 | 2.36094 | 13170 ft | 338 kts | 308° |
| 2026-05-05 17:45 | 39.59154 | 2.33870 | 13842 ft | 342 kts | 307° |
| 2026-05-05 17:45 | 39.60796 | 2.31627 | 14478 ft | 344 kts | 307° |
| 2026-05-05 17:45 | 39.62448 | 2.29366 | 15109 ft | 346 kts | 307° |
| 2026-05-05 17:45 | 39.64107 | 2.27093 | 15749 ft | 348 kts | 307° |
| 2026-05-05 17:46 | 39.65780 | 2.24801 | 16369 ft | 351 kts | 306° |
| 2026-05-05 17:46 | 39.67463 | 2.22493 | 16990 ft | 353 kts | 306° |
| 2026-05-05 17:46 | 39.69159 | 2.20171 | 17611 ft | 355 kts | 306° |
| 2026-05-05 17:46 | 39.70863 | 2.17839 | 18217 ft | 357 kts | 306° |
| 2026-05-05 17:47 | 39.72575 | 2.15495 | 18742 ft | 360 kts | 306° |
| 2026-05-05 17:47 | 39.74296 | 2.13138 | 19269 ft | 361 kts | 306° |
| 2026-05-05 17:47 | 39.76041 | 2.10746 | 19801 ft | 363 kts | 306° |
| 2026-05-05 17:47 | 39.77781 | 2.08355 | 20321 ft | 365 kts | 306° |
| 2026-05-05 17:48 | 39.79527 | 2.05956 | 20867 ft | 367 kts | 305° |
| 2026-05-05 17:48 | 39.81281 | 2.03542 | 21395 ft | 368 kts | 305° |
| 2026-05-05 17:48 | 39.83042 | 2.01115 | 21909 ft | 369 kts | 305° |
| 2026-05-05 17:48 | 39.84805 | 1.98683 | 22416 ft | 370 kts | 305° |
| 2026-05-05 17:49 | 39.86572 | 1.96242 | 22913 ft | 372 kts | 304° |
| 2026-05-05 17:49 | 39.88324 | 1.93825 | 23382 ft | 373 kts | 304° |
| 2026-05-05 17:49 | 39.90143 | 1.91321 | 23769 ft | 376 kts | 304° |
| 2026-05-05 17:49 | 39.91915 | 1.88877 | 23874 ft | 375 kts | 304° |
| 2026-05-05 17:50 | 39.93729 | 1.86372 | 23898 ft | 375 kts | 304° |
| 2026-05-05 17:50 | 39.95493 | 1.83934 | 23900 ft | 375 kts | 304° |
| 2026-05-05 17:50 | 39.97276 | 1.81462 | 23901 ft | 374 kts | 304° |
| 2026-05-05 17:50 | 39.99069 | 1.78996 | 23903 ft | 377 kts | 307° |
| 2026-05-05 17:51 | 40.01132 | 1.76810 | 23899 ft | 388 kts | 317° |
| 2026-05-05 17:51 | 40.03559 | 1.75128 | 23909 ft | 403 kts | 328° |
| 2026-05-05 17:51 | 40.06183 | 1.73792 | 23902 ft | 406 kts | 329° |
| 2026-05-05 17:51 | 40.08816 | 1.72457 | 23901 ft | 406 kts | 329° |
| 2026-05-05 17:52 | 40.11450 | 1.71113 | 23906 ft | 406 kts | 328° |
| 2026-05-05 17:52 | 40.14077 | 1.69766 | 23904 ft | 406 kts | 328° |
| 2026-05-05 17:52 | 40.16706 | 1.68419 | 23904 ft | 406 kts | 328° |
| 2026-05-05 17:52 | 40.19334 | 1.67074 | 23907 ft | 406 kts | 328° |
| 2026-05-05 17:53 | 40.21969 | 1.65719 | 24138 ft | 408 kts | 328° |
| 2026-05-05 17:53 | 40.24619 | 1.64350 | 24589 ft | 410 kts | 328° |
| 2026-05-05 17:53 | 40.27284 | 1.62969 | 24908 ft | 414 kts | 328° |
| 2026-05-05 17:53 | 40.29970 | 1.61572 | 25255 ft | 417 kts | 328° |
| 2026-05-05 17:54 | 40.32675 | 1.60167 | 25608 ft | 419 kts | 328° |
| 2026-05-05 17:54 | 40.35394 | 1.58760 | 25953 ft | 421 kts | 328° |
| 2026-05-05 17:54 | 40.38128 | 1.57350 | 26305 ft | 423 kts | 328° |
| 2026-05-05 17:54 | 40.40876 | 1.55931 | 26643 ft | 426 kts | 328° |
| 2026-05-05 17:55 | 40.43635 | 1.54505 | 26986 ft | 428 kts | 328° |
| 2026-05-05 17:55 | 40.46412 | 1.53069 | 27322 ft | 430 kts | 328° |
| 2026-05-05 17:55 | 40.49201 | 1.51624 | 27696 ft | 432 kts | 328° |
| 2026-05-05 17:55 | 40.51965 | 1.50188 | 28023 ft | 434 kts | 328° |
| 2026-05-05 17:56 | 40.54816 | 1.48704 | 28358 ft | 436 kts | 328° |
| 2026-05-05 17:56 | 40.57640 | 1.47234 | 28689 ft | 438 kts | 328° |
| 2026-05-05 17:56 | 40.60482 | 1.45754 | 29018 ft | 440 kts | 328° |
| 2026-05-05 17:56 | 40.63332 | 1.44267 | 29327 ft | 442 kts | 328° |
| 2026-05-05 17:57 | 40.66197 | 1.42772 | 29628 ft | 444 kts | 328° |
| 2026-05-05 17:57 | 40.69036 | 1.41290 | 29918 ft | 446 kts | 328° |
| 2026-05-05 17:57 | 40.71924 | 1.39781 | 30170 ft | 448 kts | 328° |
| 2026-05-05 17:57 | 40.74824 | 1.38264 | 30413 ft | 450 kts | 328° |
| 2026-05-05 17:58 | 40.77738 | 1.36738 | 30621 ft | 451 kts | 328° |
| 2026-05-05 17:58 | 40.80702 | 1.35184 | 30860 ft | 453 kts | 328° |
| 2026-05-05 17:58 | 40.83595 | 1.33666 | 31142 ft | 453 kts | 328° |
| 2026-05-05 17:58 | 40.86521 | 1.32131 | 31467 ft | 453 kts | 328° |
| 2026-05-05 17:59 | 40.89446 | 1.30596 | 31777 ft | 452 kts | 328° |
| 2026-05-05 17:59 | 40.92368 | 1.29061 | 32147 ft | 452 kts | 328° |
| 2026-05-05 17:59 | 40.95290 | 1.27523 | 32436 ft | 452 kts | 328° |
| 2026-05-05 17:59 | 40.98215 | 1.25982 | 32731 ft | 452 kts | 328° |
| 2026-05-05 18:00 | 41.01135 | 1.24445 | 33025 ft | 452 kts | 328° |
| 2026-05-05 18:00 | 41.04058 | 1.22906 | 33325 ft | 452 kts | 328° |
| 2026-05-05 18:00 | 41.06979 | 1.21365 | 33614 ft | 452 kts | 328° |
| 2026-05-05 18:00 | 41.09898 | 1.19815 | 33903 ft | 452 kts | 328° |
| 2026-05-05 18:01 | 41.12824 | 1.18282 | 34194 ft | 455 kts | 332° |
| 2026-05-05 18:01 | 41.15913 | 1.17171 | 34443 ft | 466 kts | 341° |
| 2026-05-05 18:01 | 41.19166 | 1.16668 | 34684 ft | 473 kts | 347° |
| 2026-05-05 18:01 | 41.22446 | 1.16344 | 34921 ft | 473 kts | 347° |
| 2026-05-05 18:02 | 41.25728 | 1.16011 | 35159 ft | 472 kts | 347° |
| 2026-05-05 18:02 | 41.28998 | 1.15669 | 35395 ft | 471 kts | 347° |
| 2026-05-05 18:02 | 41.32264 | 1.15324 | 35630 ft | 471 kts | 347° |
| 2026-05-05 18:02 | 41.35526 | 1.14979 | 35867 ft | 471 kts | 347° |
| 2026-05-05 18:03 | 41.38779 | 1.14633 | 35923 ft | 468 kts | 348° |
| 2026-05-05 18:03 | 41.45223 | 1.13957 | 35921 ft | 462 kts | 348° |
| 2026-05-05 18:04 | 41.51619 | 1.13283 | 35929 ft | 460 kts | 348° |
| 2026-05-05 18:04 | 41.58004 | 1.12603 | 35934 ft | 460 kts | 348° |
| 2026-05-05 18:05 | 41.64378 | 1.11930 | 35927 ft | 459 kts | 348° |
| 2026-05-05 18:05 | 41.70746 | 1.11256 | 35940 ft | 459 kts | 348° |
| 2026-05-05 18:06 | 41.77114 | 1.10578 | 35982 ft | 459 kts | 348° |
| 2026-05-05 18:06 | 41.83482 | 1.09894 | 35983 ft | 459 kts | 349° |
| 2026-05-05 18:07 | 41.89852 | 1.09210 | 35984 ft | 459 kts | 349° |
| 2026-05-05 18:07 | 41.96222 | 1.08538 | 35981 ft | 459 kts | 349° |
| 2026-05-05 18:08 | 42.02591 | 1.07866 | 35991 ft | 459 kts | 349° |
| 2026-05-05 18:08 | 42.08916 | 1.07181 | 35973 ft | 459 kts | 349° |
| 2026-05-05 18:09 | 42.15281 | 1.06489 | 35967 ft | 459 kts | 349° |
| 2026-05-05 18:09 | 42.21653 | 1.05801 | 35966 ft | 459 kts | 350° |
| 2026-05-05 18:10 | 42.28020 | 1.05112 | 35959 ft | 460 kts | 350° |
| 2026-05-05 18:10 | 42.34398 | 1.04431 | 35950 ft | 460 kts | 350° |
| 2026-05-05 18:11 | 42.40767 | 1.03756 | 35978 ft | 460 kts | 350° |
| 2026-05-05 18:11 | 42.47146 | 1.03073 | 35973 ft | 459 kts | 350° |
| 2026-05-05 18:12 | 42.53512 | 1.02364 | 35973 ft | 460 kts | 350° |
| 2026-05-05 18:12 | 42.59893 | 1.01657 | 35972 ft | 460 kts | 350° |
| 2026-05-05 18:13 | 42.66269 | 1.00965 | 35994 ft | 460 kts | 350° |
| 2026-05-05 18:13 | 42.72649 | 1.00275 | 36000 ft | 460 kts | 350° |
| 2026-05-05 18:14 | 42.79025 | 0.99565 | 35996 ft | 459 kts | 350° |
| 2026-05-05 18:14 | 42.85402 | 0.98850 | 35998 ft | 460 kts | 350° |
| 2026-05-05 18:15 | 42.91777 | 0.98155 | 36000 ft | 460 kts | 350° |
| 2026-05-05 18:15 | 42.98158 | 0.97461 | 36000 ft | 460 kts | 350° |
| 2026-05-05 18:16 | 43.04521 | 0.96757 | 36017 ft | 459 kts | 351° |
| 2026-05-05 18:16 | 43.10894 | 0.96054 | 36010 ft | 459 kts | 351° |
| 2026-05-05 18:17 | 43.17267 | 0.95343 | 36007 ft | 459 kts | 351° |
| 2026-05-05 18:17 | 43.23636 | 0.94631 | 36013 ft | 459 kts | 351° |
| 2026-05-05 18:18 | 43.30004 | 0.93919 | 36003 ft | 459 kts | 351° |
| 2026-05-05 18:18 | 43.36372 | 0.93209 | 35996 ft | 459 kts | 351° |
| 2026-05-05 18:19 | 43.42737 | 0.92504 | 36003 ft | 459 kts | 351° |
| 2026-05-05 18:19 | 43.49105 | 0.91785 | 35998 ft | 459 kts | 351° |
| 2026-05-05 18:20 | 43.55421 | 0.91074 | 35992 ft | 459 kts | 351° |
| 2026-05-05 18:20 | 43.61785 | 0.90367 | 35985 ft | 459 kts | 351° |
| 2026-05-05 18:21 | 43.68155 | 0.89650 | 35983 ft | 459 kts | 351° |
| 2026-05-05 18:21 | 43.74518 | 0.88913 | 35981 ft | 459 kts | 352° |
| 2026-05-05 18:22 | 43.80886 | 0.88192 | 35975 ft | 459 kts | 352° |
| 2026-05-05 18:22 | 43.87230 | 0.87333 | 35980 ft | 456 kts | 345° |
| 2026-05-05 18:23 | 43.93144 | 0.84511 | 35959 ft | 447 kts | 330° |
| 2026-05-05 18:23 | 43.98782 | 0.80850 | 35959 ft | 448 kts | 331° |
| 2026-05-05 18:24 | 44.04433 | 0.77209 | 35965 ft | 448 kts | 331° |
| 2026-05-05 18:24 | 44.10084 | 0.73557 | 35969 ft | 448 kts | 332° |
| 2026-05-05 18:25 | 44.15734 | 0.69895 | 35966 ft | 448 kts | 332° |
| 2026-05-05 18:25 | 44.21386 | 0.66219 | 35963 ft | 448 kts | 332° |
| 2026-05-05 18:26 | 44.27042 | 0.62536 | 35963 ft | 449 kts | 332° |
| 2026-05-05 18:26 | 44.32699 | 0.58850 | 35961 ft | 449 kts | 332° |
| 2026-05-05 18:27 | 44.38354 | 0.55159 | 35956 ft | 448 kts | 332° |
| 2026-05-05 18:27 | 44.43052 | 0.52078 | 35956 ft | 449 kts | 332° |
| 2026-05-05 18:28 | 44.51521 | 0.46481 | 35951 ft | 449 kts | 332° |
| 2026-05-05 18:28 | 44.57165 | 0.42723 | 35946 ft | 449 kts | 332° |
| 2026-05-05 18:29 | 44.62816 | 0.38959 | 35952 ft | 450 kts | 332° |
| 2026-05-05 18:29 | 44.68468 | 0.35191 | 35966 ft | 450 kts | 332° |
| 2026-05-05 18:30 | 44.74119 | 0.31415 | 35965 ft | 449 kts | 332° |
| 2026-05-05 18:30 | 44.79764 | 0.27638 | 35957 ft | 449 kts | 332° |
| 2026-05-05 18:31 | 44.85406 | 0.23845 | 35950 ft | 449 kts | 332° |
| 2026-05-05 18:31 | 44.91042 | 0.20047 | 35951 ft | 449 kts | 332° |
| 2026-05-05 18:32 | 44.96677 | 0.16247 | 35951 ft | 449 kts | 332° |
| 2026-05-05 18:32 | 45.02313 | 0.12440 | 35947 ft | 449 kts | 332° |
| 2026-05-05 18:33 | 45.07952 | 0.08629 | 35939 ft | 449 kts | 332° |
| 2026-05-05 18:33 | 45.13581 | 0.04811 | 35936 ft | 449 kts | 332° |
| 2026-05-05 18:34 | 45.19208 | 0.00974 | 35935 ft | 449 kts | 332° |
| 2026-05-05 18:34 | 45.24795 | -0.02846 | 35940 ft | 449 kts | 333° |
| 2026-05-05 18:35 | 45.30434 | -0.06686 | 35938 ft | 449 kts | 333° |
| 2026-05-05 18:35 | 45.36065 | -0.10533 | 35930 ft | 449 kts | 333° |
| 2026-05-05 18:36 | 45.41729 | -0.14416 | 35928 ft | 449 kts | 333° |
| 2026-05-05 18:36 | 45.47347 | -0.18287 | 35922 ft | 449 kts | 333° |
| 2026-05-05 18:37 | 45.52930 | -0.22140 | 35920 ft | 449 kts | 332° |
| 2026-05-05 18:37 | 45.58550 | -0.26020 | 35922 ft | 449 kts | 333° |
| 2026-05-05 18:38 | 45.64174 | -0.29915 | 35922 ft | 449 kts | 332° |
| 2026-05-05 18:38 | 45.69315 | -0.34903 | 35916 ft | 447 kts | 320° |
| 2026-05-05 18:39 | 45.74189 | -0.40415 | 35904 ft | 447 kts | 320° |
| 2026-05-05 18:39 | 45.79069 | -0.45931 | 35901 ft | 447 kts | 320° |
| 2026-05-05 18:40 | 45.83946 | -0.51446 | 35897 ft | 447 kts | 320° |
| 2026-05-05 18:40 | 45.88818 | -0.56971 | 35893 ft | 447 kts | 320° |
| 2026-05-05 18:41 | 45.93689 | -0.62515 | 35896 ft | 447 kts | 320° |
| 2026-05-05 18:41 | 45.98557 | -0.68063 | 35901 ft | 447 kts | 321° |
| 2026-05-05 18:42 | 46.03430 | -0.73621 | 35896 ft | 447 kts | 320° |
| 2026-05-05 18:42 | 46.08303 | -0.79199 | 35900 ft | 448 kts | 320° |
| 2026-05-05 18:43 | 46.13172 | -0.84792 | 35911 ft | 447 kts | 320° |
| 2026-05-05 18:43 | 46.18032 | -0.90381 | 35908 ft | 447 kts | 321° |
| 2026-05-05 18:44 | 46.22860 | -0.95944 | 35917 ft | 447 kts | 320° |
| 2026-05-05 18:44 | 46.27714 | -1.01557 | 35915 ft | 447 kts | 320° |
| 2026-05-05 18:45 | 46.32558 | -1.07172 | 35916 ft | 446 kts | 320° |
| 2026-05-05 18:45 | 46.37405 | -1.12795 | 35912 ft | 446 kts | 320° |
| 2026-05-05 18:46 | 46.42246 | -1.18427 | 35884 ft | 447 kts | 321° |
| 2026-05-05 18:46 | 46.47094 | -1.24070 | 35883 ft | 447 kts | 321° |
| 2026-05-05 18:47 | 46.51930 | -1.29726 | 35893 ft | 447 kts | 320° |
| 2026-05-05 18:47 | 46.56758 | -1.35399 | 35890 ft | 446 kts | 320° |
| 2026-05-05 18:48 | 46.61409 | -1.41359 | 35889 ft | 446 kts | 313° |
| 2026-05-05 18:48 | 46.65704 | -1.47866 | 35888 ft | 446 kts | 313° |
| 2026-05-05 18:49 | 46.69999 | -1.54377 | 35895 ft | 446 kts | 313° |
| 2026-05-05 18:49 | 46.74298 | -1.60898 | 35896 ft | 446 kts | 313° |
| 2026-05-05 18:50 | 46.78581 | -1.67424 | 35904 ft | 445 kts | 313° |
| 2026-05-05 18:50 | 46.82857 | -1.73960 | 35905 ft | 445 kts | 313° |
| 2026-05-05 18:51 | 46.87128 | -1.80505 | 35911 ft | 445 kts | 313° |
| 2026-05-05 18:51 | 46.91393 | -1.87045 | 35910 ft | 444 kts | 313° |
| 2026-05-05 18:52 | 46.95649 | -1.93588 | 35908 ft | 443 kts | 313° |
| 2026-05-05 18:52 | 46.99894 | -2.00137 | 35913 ft | 443 kts | 313° |
| 2026-05-05 18:53 | 47.04174 | -2.06654 | 35912 ft | 444 kts | 315° |
| 2026-05-05 18:53 | 47.08532 | -2.13070 | 35914 ft | 444 kts | 315° |
| 2026-05-05 18:54 | 47.12888 | -2.19481 | 35920 ft | 443 kts | 315° |
| 2026-05-05 18:54 | 47.17193 | -2.25885 | 35917 ft | 443 kts | 315° |
| 2026-05-05 18:55 | 47.21519 | -2.32355 | 35919 ft | 444 kts | 314° |
| 2026-05-05 18:55 | 47.25830 | -2.38845 | 35923 ft | 444 kts | 314° |
| 2026-05-05 18:56 | 47.30145 | -2.45350 | 35919 ft | 444 kts | 314° |
| 2026-05-05 18:56 | 47.34470 | -2.51860 | 35924 ft | 444 kts | 315° |
| 2026-05-05 18:57 | 47.38792 | -2.58378 | 35930 ft | 444 kts | 314° |
| 2026-05-05 18:57 | 47.43109 | -2.64906 | 35937 ft | 444 kts | 315° |
| 2026-05-05 18:58 | 47.47408 | -2.71442 | 35945 ft | 443 kts | 314° |
| 2026-05-05 18:58 | 47.51704 | -2.77978 | 35943 ft | 443 kts | 314° |
| 2026-05-05 18:59 | 47.55995 | -2.84526 | 35958 ft | 443 kts | 314° |
| 2026-05-05 18:59 | 47.60581 | -2.90568 | 35955 ft | 442 kts | 324° |
| 2026-05-05 19:00 | 47.65530 | -2.95963 | 35961 ft | 441 kts | 324° |
| 2026-05-05 19:00 | 47.70469 | -3.01361 | 35972 ft | 440 kts | 324° |
| 2026-05-05 19:01 | 47.75381 | -3.06767 | 35980 ft | 440 kts | 324° |
| 2026-05-05 19:01 | 47.80301 | -3.12196 | 35980 ft | 440 kts | 323° |
| 2026-05-05 19:02 | 47.85211 | -3.17624 | 35972 ft | 439 kts | 324° |
| 2026-05-05 19:02 | 47.90117 | -3.23050 | 35972 ft | 439 kts | 324° |
| 2026-05-05 19:03 | 47.95009 | -3.28473 | 35967 ft | 438 kts | 324° |
| 2026-05-05 19:03 | 47.99892 | -3.33903 | 35960 ft | 438 kts | 323° |
| 2026-05-05 19:04 | 48.04776 | -3.39348 | 35960 ft | 438 kts | 324° |
| 2026-05-05 19:04 | 48.09657 | -3.44805 | 35980 ft | 437 kts | 324° |
| 2026-05-05 19:05 | 48.14519 | -3.50261 | 35989 ft | 436 kts | 324° |
| 2026-05-05 19:05 | 48.19371 | -3.55710 | 35992 ft | 435 kts | 324° |
| 2026-05-05 19:06 | 48.24181 | -3.61107 | 35998 ft | 434 kts | 324° |
| 2026-05-05 19:06 | 48.29003 | -3.66543 | 36001 ft | 433 kts | 323° |
| 2026-05-05 19:07 | 48.33032 | -3.71110 | 35993 ft | 433 kts | 323° |
| 2026-05-05 19:07 | 48.38618 | -3.77451 | 35991 ft | 433 kts | 324° |
| 2026-05-05 19:08 | 48.43417 | -3.82908 | 35992 ft | 432 kts | 323° |
| 2026-05-05 19:08 | 48.48211 | -3.88372 | 35990 ft | 432 kts | 323° |
| 2026-05-05 19:09 | 48.52997 | -3.93835 | 36013 ft | 431 kts | 324° |
| 2026-05-05 19:09 | 48.57769 | -3.99299 | 36015 ft | 430 kts | 324° |
| 2026-05-05 19:10 | 48.62534 | -4.04772 | 36005 ft | 430 kts | 323° |
| 2026-05-05 19:10 | 48.67300 | -4.10247 | 36003 ft | 430 kts | 323° |
| 2026-05-05 19:11 | 48.72059 | -4.15733 | 36007 ft | 430 kts | 323° |
| 2026-05-05 19:11 | 48.76817 | -4.21238 | 36001 ft | 430 kts | 323° |
| 2026-05-05 19:12 | 48.81574 | -4.26754 | 35997 ft | 430 kts | 323° |
| 2026-05-05 19:12 | 48.86330 | -4.32279 | 36007 ft | 430 kts | 323° |
| 2026-05-05 19:13 | 48.90272 | -4.36860 | 35997 ft | 430 kts | 323° |
| 2026-05-05 19:13 | 48.95826 | -4.43338 | 36007 ft | 430 kts | 323° |
| 2026-05-05 19:14 | 48.99764 | -4.47952 | 36009 ft | 429 kts | 323° |
| 2026-05-05 19:14 | 49.04500 | -4.53507 | 35997 ft | 429 kts | 323° |
| 2026-05-05 19:15 | 49.09230 | -4.59068 | 35992 ft | 430 kts | 323° |
| 2026-05-05 19:15 | 49.13962 | -4.64649 | 35991 ft | 430 kts | 323° |
| 2026-05-05 19:16 | 49.18688 | -4.70230 | 35993 ft | 429 kts | 322° |
| 2026-05-05 19:16 | 49.23414 | -4.75823 | 35989 ft | 430 kts | 322° |
| 2026-05-05 19:17 | 49.28135 | -4.81442 | 35988 ft | 430 kts | 322° |
| 2026-05-05 19:17 | 49.32856 | -4.87072 | 35995 ft | 430 kts | 322° |
| 2026-05-05 19:18 | 49.37583 | -4.92700 | 35986 ft | 430 kts | 322° |
| 2026-05-05 19:18 | 49.42308 | -4.98341 | 35988 ft | 430 kts | 322° |
| 2026-05-05 19:19 | 49.47023 | -5.03995 | 35999 ft | 430 kts | 322° |
| 2026-05-05 19:19 | 49.52082 | -5.08853 | 35996 ft | 429 kts | 330° |
| 2026-05-05 19:20 | 49.57287 | -5.13353 | 35990 ft | 429 kts | 330° |
| 2026-05-05 19:20 | 49.62493 | -5.17861 | 35998 ft | 429 kts | 330° |
| 2026-05-05 19:21 | 49.67690 | -5.22376 | 35999 ft | 428 kts | 330° |
| 2026-05-05 19:21 | 49.72873 | -5.26903 | 36023 ft | 427 kts | 330° |
| 2026-05-05 19:22 | 49.78049 | -5.31426 | 36007 ft | 427 kts | 330° |
| 2026-05-05 19:22 | 49.83188 | -5.35913 | 36017 ft | 427 kts | 330° |
| 2026-05-05 19:23 | 49.88349 | -5.40444 | 36011 ft | 426 kts | 330° |
| 2026-05-05 19:23 | 49.93502 | -5.44978 | 36014 ft | 426 kts | 330° |
| 2026-05-05 19:24 | 49.98646 | -5.49515 | 36021 ft | 424 kts | 331° |
| 2026-05-05 19:24 | 50.03775 | -5.54045 | 36021 ft | 424 kts | 331° |
| 2026-05-05 19:25 | 50.08890 | -5.58573 | 36025 ft | 423 kts | 330° |
| 2026-05-05 19:25 | 50.13998 | -5.63103 | 36034 ft | 422 kts | 331° |
| 2026-05-05 19:26 | 50.19099 | -5.67641 | 36041 ft | 422 kts | 330° |
| 2026-05-05 19:26 | 50.24185 | -5.72189 | 36033 ft | 421 kts | 330° |
| 2026-05-05 19:27 | 50.29273 | -5.76746 | 36033 ft | 421 kts | 331° |
| 2026-05-05 19:27 | 50.34354 | -5.81317 | 36037 ft | 421 kts | 330° |
| 2026-05-05 19:28 | 50.39431 | -5.85883 | 36024 ft | 421 kts | 330° |
| 2026-05-05 19:28 | 50.44513 | -5.90451 | 36038 ft | 421 kts | 330° |
| 2026-05-05 19:29 | 50.49586 | -5.95035 | 36030 ft | 421 kts | 330° |
| 2026-05-05 19:29 | 50.54659 | -5.99635 | 36049 ft | 420 kts | 330° |
| 2026-05-05 19:30 | 50.59722 | -6.04242 | 36033 ft | 420 kts | 330° |
| 2026-05-05 19:30 | 50.64786 | -6.08858 | 36031 ft | 421 kts | 329° |
| 2026-05-05 19:31 | 50.69824 | -6.13449 | 36022 ft | 421 kts | 329° |
| 2026-05-05 19:31 | 50.74895 | -6.18095 | 36029 ft | 422 kts | 329° |
| 2026-05-05 19:32 | 50.79974 | -6.22764 | 36031 ft | 422 kts | 329° |
| 2026-05-05 19:32 | 50.85057 | -6.27435 | 36034 ft | 423 kts | 329° |
| 2026-05-05 19:33 | 50.90314 | -6.31600 | 36044 ft | 424 kts | 341° |
| 2026-05-05 19:33 | 50.96086 | -6.33582 | 36036 ft | 425 kts | 348° |
| 2026-05-05 19:34 | 51.01905 | -6.35290 | 36040 ft | 425 kts | 348° |
| 2026-05-05 19:35 | 51.10637 | -6.37877 | 36048 ft | 426 kts | 348° |
| 2026-05-05 19:35 | 51.16463 | -6.39606 | 36059 ft | 426 kts | 348° |
| 2026-05-05 19:36 | 51.22293 | -6.41344 | 36048 ft | 426 kts | 348° |
| 2026-05-05 19:36 | 51.28128 | -6.43084 | 36047 ft | 427 kts | 348° |
| 2026-05-05 19:37 | 51.33984 | -6.44710 | 36044 ft | 427 kts | 349° |
| 2026-05-05 19:37 | 51.39819 | -6.46192 | 36058 ft | 427 kts | 349° |
| 2026-05-05 19:38 | 51.45693 | -6.47695 | 36057 ft | 428 kts | 349° |
| 2026-05-05 19:38 | 51.51566 | -6.49240 | 36056 ft | 428 kts | 349° |
| 2026-05-05 19:39 | 51.57439 | -6.50793 | 36048 ft | 428 kts | 349° |
| 2026-05-05 19:39 | 51.63316 | -6.52349 | 36061 ft | 428 kts | 349° |
| 2026-05-05 19:40 | 51.69187 | -6.53916 | 36060 ft | 428 kts | 349° |
| 2026-05-05 19:40 | 51.75064 | -6.55481 | 36065 ft | 428 kts | 349° |
| 2026-05-05 19:41 | 51.80981 | -6.56540 | 36065 ft | 429 kts | 355° |
| 2026-05-05 19:41 | 51.86949 | -6.56994 | 36072 ft | 429 kts | 355° |
| 2026-05-05 19:42 | 51.92915 | -6.57457 | 36070 ft | 429 kts | 355° |
| 2026-05-05 19:42 | 51.98883 | -6.57928 | 36067 ft | 429 kts | 355° |
| 2026-05-05 19:43 | 52.04849 | -6.58395 | 36063 ft | 429 kts | 355° |
| 2026-05-05 19:43 | 52.10818 | -6.58868 | 36077 ft | 429 kts | 355° |
| 2026-05-05 19:44 | 52.16789 | -6.59345 | 36076 ft | 430 kts | 355° |
| 2026-05-05 19:44 | 52.22756 | -6.59820 | 36073 ft | 430 kts | 355° |
| 2026-05-05 19:45 | 52.28729 | -6.60299 | 36067 ft | 430 kts | 355° |
| 2026-05-05 19:45 | 52.34660 | -6.60768 | 36078 ft | 430 kts | 355° |
| 2026-05-05 19:46 | 52.40631 | -6.61245 | 36073 ft | 430 kts | 355° |
| 2026-05-05 19:46 | 52.46604 | -6.61726 | 36070 ft | 430 kts | 355° |
| 2026-05-05 19:47 | 52.52578 | -6.62210 | 36063 ft | 430 kts | 355° |
| 2026-05-05 19:47 | 52.58550 | -6.62695 | 36074 ft | 430 kts | 355° |
| 2026-05-05 19:48 | 52.64523 | -6.63177 | 36064 ft | 430 kts | 354° |
| 2026-05-05 19:48 | 52.70499 | -6.63657 | 36061 ft | 430 kts | 354° |
| 2026-05-05 19:49 | 52.76479 | -6.64155 | 36063 ft | 430 kts | 354° |
| 2026-05-05 19:49 | 52.78455 | -6.64318 | 35899 ft | 429 kts | 354° |
| 2026-05-05 19:49 | 52.82428 | -6.64641 | 35240 ft | 425 kts | 354° |
| 2026-05-05 19:49 | 52.85374 | -6.64879 | 34763 ft | 422 kts | 354° |
| 2026-05-05 19:50 | 52.88288 | -6.65114 | 34324 ft | 418 kts | 354° |
| 2026-05-05 19:50 | 52.91181 | -6.65348 | 33868 ft | 414 kts | 354° |
| 2026-05-05 19:50 | 52.94045 | -6.65583 | 33374 ft | 410 kts | 354° |
| 2026-05-05 19:50 | 52.96883 | -6.65806 | 32880 ft | 407 kts | 356° |
| 2026-05-05 19:51 | 52.99668 | -6.65539 | 32423 ft | 407 kts | 6° |
| 2026-05-05 19:51 | 53.02419 | -6.64471 | 31955 ft | 406 kts | 16° |
| 2026-05-05 19:51 | 53.05068 | -6.62694 | 31477 ft | 405 kts | 20° |
| 2026-05-05 19:51 | 53.07612 | -6.60869 | 31021 ft | 402 kts | 20° |
| 2026-05-05 19:52 | 53.10180 | -6.59031 | 30542 ft | 400 kts | 20° |
| 2026-05-05 19:52 | 53.12730 | -6.57207 | 30080 ft | 398 kts | 20° |
| 2026-05-05 19:52 | 53.15262 | -6.55391 | 29556 ft | 395 kts | 20° |
| 2026-05-05 19:52 | 53.17772 | -6.53583 | 29042 ft | 392 kts | 20° |
| 2026-05-05 19:53 | 53.20261 | -6.51786 | 28540 ft | 389 kts | 20° |
| 2026-05-05 19:53 | 53.22734 | -6.50001 | 28054 ft | 385 kts | 20° |
| 2026-05-05 19:53 | 53.25186 | -6.48235 | 27586 ft | 382 kts | 20° |
| 2026-05-05 19:53 | 53.27624 | -6.46482 | 27121 ft | 379 kts | 20° |
| 2026-05-05 19:54 | 53.30038 | -6.44743 | 26655 ft | 377 kts | 20° |
| 2026-05-05 19:54 | 53.32439 | -6.43027 | 26204 ft | 374 kts | 20° |
| 2026-05-05 19:54 | 53.34825 | -6.41344 | 25762 ft | 371 kts | 19° |
| 2026-05-05 19:54 | 53.37201 | -6.39680 | 25325 ft | 369 kts | 19° |
| 2026-05-05 19:55 | 53.39559 | -6.38033 | 24889 ft | 366 kts | 19° |
| 2026-05-05 19:55 | 53.41901 | -6.36393 | 24466 ft | 364 kts | 19° |
| 2026-05-05 19:55 | 53.44226 | -6.34757 | 24053 ft | 361 kts | 19° |
| 2026-05-05 19:55 | 53.46530 | -6.33131 | 23633 ft | 359 kts | 19° |
| 2026-05-05 19:56 | 53.48836 | -6.31586 | 23160 ft | 355 kts | 14° |
| 2026-05-05 19:56 | 53.51227 | -6.30694 | 22708 ft | 348 kts | 3° |
| 2026-05-05 19:56 | 53.53618 | -6.30465 | 22275 ft | 344 kts | 359° |
| 2026-05-05 19:56 | 53.55998 | -6.30321 | 21838 ft | 341 kts | 359° |
| 2026-05-05 19:57 | 53.58365 | -6.30173 | 21431 ft | 339 kts | 359° |
| 2026-05-05 19:57 | 53.59922 | -6.30074 | 21164 ft | 337 kts | 359° |
| 2026-05-05 19:57 | 53.63036 | -6.29866 | 20634 ft | 334 kts | 359° |
| 2026-05-05 19:57 | 53.65350 | -6.29707 | 20232 ft | 331 kts | 359° |
| 2026-05-05 19:58 | 53.67643 | -6.29551 | 19849 ft | 329 kts | 359° |
| 2026-05-05 19:58 | 53.69925 | -6.29400 | 19472 ft | 327 kts | 359° |
| 2026-05-05 19:58 | 53.72191 | -6.29256 | 19102 ft | 325 kts | 359° |
| 2026-05-05 19:58 | 53.74443 | -6.29117 | 18743 ft | 323 kts | 359° |
| 2026-05-05 19:59 | 53.76682 | -6.28974 | 18382 ft | 321 kts | 359° |
| 2026-05-05 19:59 | 53.78909 | -6.28821 | 17990 ft | 319 kts | 359° |
| 2026-05-05 19:59 | 53.81122 | -6.28664 | 17600 ft | 317 kts | 359° |
| 2026-05-05 19:59 | 53.83323 | -6.28511 | 17231 ft | 315 kts | 359° |
| 2026-05-05 20:00 | 53.85509 | -6.28369 | 16865 ft | 314 kts | 359° |
| 2026-05-05 20:00 | 53.87683 | -6.28230 | 16509 ft | 312 kts | 359° |
| 2026-05-05 20:00 | 53.89844 | -6.28093 | 16163 ft | 310 kts | 359° |
| 2026-05-05 20:00 | 53.91989 | -6.27959 | 15818 ft | 308 kts | 359° |
| 2026-05-05 20:01 | 53.94130 | -6.27821 | 15483 ft | 307 kts | 359° |
| 2026-05-05 20:01 | 53.96254 | -6.27679 | 15149 ft | 305 kts | 359° |
| 2026-05-05 20:01 | 53.98342 | -6.27537 | 14829 ft | 304 kts | 359° |
| 2026-05-05 20:01 | 54.00449 | -6.27391 | 14499 ft | 302 kts | 359° |
| 2026-05-05 20:02 | 54.02542 | -6.27248 | 14196 ft | 301 kts | 359° |
| 2026-05-05 20:02 | 54.04628 | -6.27113 | 13872 ft | 299 kts | 359° |
| 2026-05-05 20:02 | 54.06703 | -6.26981 | 13516 ft | 298 kts | 359° |
| 2026-05-05 20:02 | 54.08767 | -6.26845 | 13189 ft | 296 kts | 359° |
| 2026-05-05 20:03 | 54.10820 | -6.26708 | 12836 ft | 295 kts | 359° |
| 2026-05-05 20:03 | 54.12863 | -6.26569 | 12497 ft | 293 kts | 359° |
| 2026-05-05 20:03 | 54.14883 | -6.26432 | 11958 ft | 289 kts | 359° |
| 2026-05-05 20:03 | 54.16887 | -6.26297 | 11378 ft | 287 kts | 360° |
| 2026-05-05 20:04 | 54.18874 | -6.26165 | 11066 ft | 284 kts | 360° |
| 2026-05-05 20:04 | 54.20861 | -6.26035 | 11077 ft | 287 kts | 360° |
| 2026-05-05 20:04 | 54.22206 | -6.25948 | 11078 ft | 287 kts | 360° |
| 2026-05-05 20:04 | 54.24203 | -6.25818 | 11079 ft | 287 kts | 360° |
| 2026-05-05 20:05 | 54.26171 | -6.25692 | 11081 ft | 287 kts | 360° |
| 2026-05-05 20:05 | 54.28164 | -6.25642 | 11080 ft | 286 kts | 353° |
| 2026-05-05 20:05 | 54.30097 | -6.26316 | 11085 ft | 283 kts | 338° |
| 2026-05-05 20:05 | 54.31883 | -6.27708 | 11084 ft | 282 kts | 332° |
| 2026-05-05 20:06 | 54.33633 | -6.29184 | 10800 ft | 279 kts | 332° |
| 2026-05-05 20:06 | 54.35366 | -6.30645 | 10236 ft | 276 kts | 332° |
| 2026-05-05 20:06 | 54.37082 | -6.32092 | 9630 ft | 275 kts | 333° |
| 2026-05-05 20:06 | 54.38790 | -6.33532 | 8999 ft | 272 kts | 333° |
| 2026-05-05 20:07 | 54.40565 | -6.34609 | 8369 ft | 270 kts | 346° |
| 2026-05-05 20:07 | 54.42402 | -6.35243 | 7754 ft | 268 kts | 348° |
| 2026-05-05 20:07 | 54.44219 | -6.35836 | 7182 ft | 264 kts | 349° |
| 2026-05-05 20:07 | 54.45958 | -6.36431 | 7036 ft | 245 kts | 349° |
| 2026-05-05 20:08 | 54.47540 | -6.37317 | 6520 ft | 243 kts | 330° |
| 2026-05-05 20:08 | 54.48786 | -6.39318 | 5794 ft | 251 kts | 308° |
| 2026-05-05 20:08 | 54.49832 | -6.41732 | 5255 ft | 251 kts | 308° |
| 2026-05-05 20:08 | 54.51063 | -6.43805 | 4809 ft | 246 kts | 328° |
| 2026-05-05 20:09 | 54.52571 | -6.45123 | 4397 ft | 241 kts | 335° |
| 2026-05-05 20:09 | 54.54085 | -6.46337 | 4049 ft | 238 kts | 335° |
| 2026-05-05 20:09 | 54.55562 | -6.47527 | 3999 ft | 228 kts | 335° |
| 2026-05-05 20:09 | 54.56985 | -6.48525 | 3873 ft | 214 kts | 351° |
| 2026-05-05 20:10 | 54.58355 | -6.48059 | 3706 ft | 200 kts | 35° |
| 2026-05-05 20:10 | 54.59158 | -6.46196 | 3567 ft | 191 kts | 60° |
| 2026-05-05 20:10 | 54.59729 | -6.44144 | 3256 ft | 188 kts | 64° |
| 2026-05-05 20:10 | 54.60263 | -6.42124 | 2704 ft | 184 kts | 61° |
| 2026-05-05 20:11 | 54.60792 | -6.40122 | 2223 ft | 179 kts | 62° |
| 2026-05-05 20:11 | 54.61285 | -6.38248 | 2015 ft | 165 kts | 60° |
| 2026-05-05 20:11 | 54.61750 | -6.36494 | 1830 ft | 158 kts | 59° |
| 2026-05-05 20:11 | 54.62204 | -6.34789 | 1615 ft | 154 kts | 60° |
| 2026-05-05 20:12 | 54.62625 | -6.33203 | 1420 ft | 139 kts | 60° |
| 2026-05-05 20:12 | 54.63026 | -6.31712 | 1230 ft | 135 kts | 60° |
| 2026-05-05 20:12 | 54.63420 | -6.30259 | 1051 ft | 134 kts | 59° |
| 2026-05-05 20:12 | 54.63815 | -6.28793 | 903 ft | 135 kts | 60° |
| 2026-05-05 20:13 | 54.64197 | -6.27321 | 748 ft | 135 kts | 62° |
| 2026-05-05 20:13 | 54.64601 | -6.25834 | 581 ft | 135 kts | 61° |
| 2026-05-05 20:13 | 54.64991 | -6.24377 | 408 ft | 136 kts | 60° |
| 2026-05-05 20:13 | 54.65391 | -6.22899 | 277 ft | 129 kts | 60° |
| 2026-05-05 20:14 | 54.65708 | -6.21739 | 272 ft | 84 kts | 65° |
| 2026-05-05 20:14 | 54.65839 | -6.21327 | 272 ft | 16 kts | 10° |
| 2026-05-05 20:14 | 54.65917 | -6.21364 | 275 ft | 8 kts | 334° |
| 2026-05-05 20:14 | 54.65971 | -6.21409 | 272 ft | 0 kts | 332° |
| 2026-05-05 20:15 | 54.65975 | -6.21418 | 272 ft | 2 kts | 300° |
| 2026-05-05 20:15 | 54.65968 | -6.21454 | 272 ft | 3 kts | 246° |
| 2026-05-05 20:16 | 54.65960 | -6.21481 | 272 ft | 2 kts | 243° |
| 2026-05-05 20:16 | 54.65951 | -6.21513 | 272 ft | 7 kts | 244° |
| 2026-05-05 20:16 | 54.65972 | -6.21603 | 272 ft | 9 kts | 327° |
| 2026-05-05 20:16 | 54.66035 | -6.21659 | 272 ft | 10 kts | 322° |
| 2026-05-05 20:17 | 54.66055 | -6.21763 | 272 ft | 7 kts | 284° |
| 2026-05-05 20:17 | 54.66059 | -6.21790 | 275 ft | 0 kts | 284° |